sensor_id;sensor_type;location;lat;lon;timestamp;P1;durP1;ratioP1;P2;durP2;ratioP2
22332;SDS011;11334;36.986;-121.936;2023-02-11T00:00:10;2.35;;;0.70;;
22332;SDS011;11334;36.986;-121.936;2023-02-11T00:02:37;3.83;;;1.20;;
22332;SDS011;11334;36.986;-121.936;2023-02-11T00:05:03;2.72;;;0.68;;
22332;SDS011;11334;36.986;-121.936;2023-02-11T00:07:31;5.13;;;0.88;;
22332;SDS011;11334;36.986;-121.936;2023-02-11T00:09:58;2.85;;;0.70;;
22332;SDS011;11334;36.986;-121.936;2023-02-11T00:12:24;2.38;;;0.90;;
22332;SDS011;11334;36.986;-121.936;2023-02-11T00:14:50;3.55;;;1.10;;
22332;SDS011;11334;36.986;-121.936;2023-02-11T00:17:17;1.63;;;0.70;;
22332;SDS011;11334;36.986;-121.936;2023-02-11T00:19:43;1.45;;;0.70;;
22332;SDS011;11334;36.986;-121.936;2023-02-11T00:22:09;1.65;;;0.80;;
22332;SDS011;11334;36.986;-121.936;2023-02-11T00:24:35;2.90;;;0.82;;
22332;SDS011;11334;36.986;-121.936;2023-02-11T00:27:02;2.95;;;1.25;;
22332;SDS011;11334;36.986;-121.936;2023-02-11T00:29:28;2.92;;;1.33;;
22332;SDS011;11334;36.986;-121.936;2023-02-11T00:31:54;7.00;;;1.30;;
22332;SDS011;11334;36.986;-121.936;2023-02-11T00:34:21;2.92;;;0.70;;
22332;SDS011;11334;36.986;-121.936;2023-02-11T00:36:47;3.53;;;1.25;;
22332;SDS011;11334;36.986;-121.936;2023-02-11T00:39:13;6.13;;;1.30;;
22332;SDS011;11334;36.986;-121.936;2023-02-11T00:41:40;4.20;;;0.90;;
22332;SDS011;11334;36.986;-121.936;2023-02-11T00:44:06;8.32;;;1.55;;
22332;SDS011;11334;36.986;-121.936;2023-02-11T00:46:32;5.10;;;1.58;;
22332;SDS011;11334;36.986;-121.936;2023-02-11T00:48:58;3.72;;;1.27;;
22332;SDS011;11334;36.986;-121.936;2023-02-11T00:51:25;4.18;;;1.10;;
22332;SDS011;11334;36.986;-121.936;2023-02-11T00:53:52;5.38;;;1.60;;
22332;SDS011;11334;36.986;-121.936;2023-02-11T00:56:19;3.63;;;1.25;;
22332;SDS011;11334;36.986;-121.936;2023-02-11T00:58:46;4.65;;;1.40;;
22332;SDS011;11334;36.986;-121.936;2023-02-11T01:01:12;5.00;;;1.60;;
22332;SDS011;11334;36.986;-121.936;2023-02-11T01:03:38;5.03;;;1.70;;
22332;SDS011;11334;36.986;-121.936;2023-02-11T01:06:06;2.78;;;1.25;;
22332;SDS011;11334;36.986;-121.936;2023-02-11T01:08:33;5.18;;;1.70;;
22332;SDS011;11334;36.986;-121.936;2023-02-11T01:11:00;3.80;;;1.40;;
22332;SDS011;11334;36.986;-121.936;2023-02-11T01:13:32;3.92;;;1.25;;
22332;SDS011;11334;36.986;-121.936;2023-02-11T01:16:01;4.57;;;1.08;;
22332;SDS011;11334;36.986;-121.936;2023-02-11T01:18:28;5.07;;;1.20;;
22332;SDS011;11334;36.986;-121.936;2023-02-11T01:20:54;6.32;;;1.85;;
22332;SDS011;11334;36.986;-121.936;2023-02-11T01:23:21;7.28;;;1.60;;
22332;SDS011;11334;36.986;-121.936;2023-02-11T01:25:47;5.32;;;1.60;;
22332;SDS011;11334;36.986;-121.936;2023-02-11T01:28:18;9.20;;;2.70;;
22332;SDS011;11334;36.986;-121.936;2023-02-11T01:30:54;5.38;;;1.83;;
22332;SDS011;11334;36.986;-121.936;2023-02-11T01:33:21;7.00;;;1.40;;
22332;SDS011;11334;36.986;-121.936;2023-02-11T01:35:48;4.15;;;1.42;;
22332;SDS011;11334;36.986;-121.936;2023-02-11T01:38:33;5.72;;;1.67;;
22332;SDS011;11334;36.986;-121.936;2023-02-11T01:41:02;6.45;;;1.63;;
22332;SDS011;11334;36.986;-121.936;2023-02-11T01:43:35;7.10;;;1.92;;
22332;SDS011;11334;36.986;-121.936;2023-02-11T01:46:16;6.95;;;1.85;;
22332;SDS011;11334;36.986;-121.936;2023-02-11T01:48:48;8.48;;;1.90;;
22332;SDS011;11334;36.986;-121.936;2023-02-11T01:51:20;7.47;;;1.75;;
22332;SDS011;11334;36.986;-121.936;2023-02-11T01:53:52;4.80;;;1.80;;
22332;SDS011;11334;36.986;-121.936;2023-02-11T01:56:40;5.47;;;1.92;;
22332;SDS011;11334;36.986;-121.936;2023-02-11T01:59:33;8.50;;;1.83;;
22332;SDS011;11334;36.986;-121.936;2023-02-11T02:02:07;5.90;;;1.65;;
22332;SDS011;11334;36.986;-121.936;2023-02-11T02:04:37;6.38;;;1.90;;
22332;SDS011;11334;36.986;-121.936;2023-02-11T02:07:20;7.05;;;2.85;;
22332;SDS011;11334;36.986;-121.936;2023-02-11T02:09:58;6.13;;;1.65;;
22332;SDS011;11334;36.986;-121.936;2023-02-11T02:12:29;2.25;;;1.48;;
22332;SDS011;11334;36.986;-121.936;2023-02-11T02:34:14;1.63;;;0.68;;
22332;SDS011;11334;36.986;-121.936;2023-02-11T02:36:52;5.93;;;1.25;;
22332;SDS011;11334;36.986;-121.936;2023-02-11T02:39:27;2.42;;;0.93;;
22332;SDS011;11334;36.986;-121.936;2023-02-11T02:42:00;2.03;;;0.75;;
22332;SDS011;11334;36.986;-121.936;2023-02-11T02:44:28;3.95;;;0.98;;
22332;SDS011;11334;36.986;-121.936;2023-02-11T02:46:55;2.97;;;1.10;;
22332;SDS011;11334;36.986;-121.936;2023-02-11T02:49:22;1.40;;;0.80;;
22332;SDS011;11334;36.986;-121.936;2023-02-11T02:57:12;2.25;;;1.15;;
22332;SDS011;11334;36.986;-121.936;2023-02-11T02:59:51;0.50;;;0.40;;
22332;SDS011;11334;36.986;-121.936;2023-02-11T03:03:44;2.47;;;0.80;;
22332;SDS011;11334;36.986;-121.936;2023-02-11T03:10:52;1.23;;;0.60;;
22332;SDS011;11334;36.986;-121.936;2023-02-11T03:13:21;2.05;;;0.60;;
22332;SDS011;11334;36.986;-121.936;2023-02-11T03:15:53;1.40;;;0.68;;
22332;SDS011;11334;36.986;-121.936;2023-02-11T03:18:23;1.38;;;1.08;;
22332;SDS011;11334;36.986;-121.936;2023-02-11T03:20:53;3.85;;;1.13;;
22332;SDS011;11334;36.986;-121.936;2023-02-11T03:31:45;4.22;;;0.93;;
22332;SDS011;11334;36.986;-121.936;2023-02-11T03:34:41;2.90;;;0.55;;
22332;SDS011;11334;36.986;-121.936;2023-02-11T03:37:17;1.98;;;0.73;;
22332;SDS011;11334;36.986;-121.936;2023-02-11T03:39:50;2.78;;;0.60;;
22332;SDS011;11334;36.986;-121.936;2023-02-11T03:42:42;3.28;;;0.95;;
22332;SDS011;11334;36.986;-121.936;2023-02-11T03:45:14;5.70;;;0.93;;
22332;SDS011;11334;36.986;-121.936;2023-02-11T03:47:45;7.38;;;1.15;;
22332;SDS011;11334;36.986;-121.936;2023-02-11T03:50:15;7.22;;;1.42;;
22332;SDS011;11334;36.986;-121.936;2023-02-11T03:52:43;3.42;;;1.10;;
22332;SDS011;11334;36.986;-121.936;2023-02-11T03:55:14;7.18;;;1.55;;
22332;SDS011;11334;36.986;-121.936;2023-02-11T03:57:42;6.72;;;1.75;;
22332;SDS011;11334;36.986;-121.936;2023-02-11T04:00:09;5.13;;;1.60;;
22332;SDS011;11334;36.986;-121.936;2023-02-11T04:02:36;10.40;;;1.95;;
22332;SDS011;11334;36.986;-121.936;2023-02-11T04:05:04;8.35;;;1.80;;
22332;SDS011;11334;36.986;-121.936;2023-02-11T04:07:31;9.52;;;1.77;;
22332;SDS011;11334;36.986;-121.936;2023-02-11T04:09:57;5.13;;;1.83;;
22332;SDS011;11334;36.986;-121.936;2023-02-11T04:12:24;8.40;;;1.50;;
22332;SDS011;11334;36.986;-121.936;2023-02-11T04:14:50;5.07;;;1.30;;
22332;SDS011;11334;36.986;-121.936;2023-02-11T04:17:16;5.82;;;1.77;;
22332;SDS011;11334;36.986;-121.936;2023-02-11T04:19:43;6.13;;;1.45;;
22332;SDS011;11334;36.986;-121.936;2023-02-11T04:22:10;7.85;;;1.75;;
22332;SDS011;11334;36.986;-121.936;2023-02-11T04:24:37;4.88;;;1.20;;
22332;SDS011;11334;36.986;-121.936;2023-02-11T04:27:03;5.78;;;1.63;;
22332;SDS011;11334;36.986;-121.936;2023-02-11T04:29:29;9.07;;;2.05;;
22332;SDS011;11334;36.986;-121.936;2023-02-11T04:31:56;8.98;;;1.85;;
22332;SDS011;11334;36.986;-121.936;2023-02-11T04:34:22;9.85;;;2.00;;
22332;SDS011;11334;36.986;-121.936;2023-02-11T04:36:49;8.43;;;2.30;;
22332;SDS011;11334;36.986;-121.936;2023-02-11T04:39:16;9.30;;;1.55;;
22332;SDS011;11334;36.986;-121.936;2023-02-11T04:41:42;6.90;;;1.88;;
22332;SDS011;11334;36.986;-121.936;2023-02-11T04:44:08;7.32;;;1.92;;
22332;SDS011;11334;36.986;-121.936;2023-02-11T04:46:35;9.43;;;1.77;;
22332;SDS011;11334;36.986;-121.936;2023-02-11T04:49:01;10.98;;;2.35;;
22332;SDS011;11334;36.986;-121.936;2023-02-11T04:51:28;9.55;;;2.05;;
22332;SDS011;11334;36.986;-121.936;2023-02-11T04:53:54;6.65;;;1.40;;
22332;SDS011;11334;36.986;-121.936;2023-02-11T04:56:20;7.53;;;1.95;;
22332;SDS011;11334;36.986;-121.936;2023-02-11T04:58:46;8.30;;;1.90;;
22332;SDS011;11334;36.986;-121.936;2023-02-11T05:01:13;10.23;;;2.22;;
22332;SDS011;11334;36.986;-121.936;2023-02-11T05:03:41;4.55;;;1.60;;
22332;SDS011;11334;36.986;-121.936;2023-02-11T05:06:08;6.88;;;2.03;;
22332;SDS011;11334;36.986;-121.936;2023-02-11T05:08:35;7.72;;;1.55;;
22332;SDS011;11334;36.986;-121.936;2023-02-11T05:11:02;9.23;;;2.08;;
22332;SDS011;11334;36.986;-121.936;2023-02-11T05:13:28;7.15;;;1.60;;
22332;SDS011;11334;36.986;-121.936;2023-02-11T05:15:55;6.95;;;1.60;;
22332;SDS011;11334;36.986;-121.936;2023-02-11T05:18:21;8.57;;;2.33;;
22332;SDS011;11334;36.986;-121.936;2023-02-11T05:20:48;8.35;;;2.05;;
22332;SDS011;11334;36.986;-121.936;2023-02-11T05:23:14;6.03;;;1.60;;
22332;SDS011;11334;36.986;-121.936;2023-02-11T05:25:40;5.55;;;2.03;;
22332;SDS011;11334;36.986;-121.936;2023-02-11T05:28:06;8.55;;;2.13;;
22332;SDS011;11334;36.986;-121.936;2023-02-11T05:30:33;6.85;;;1.80;;
22332;SDS011;11334;36.986;-121.936;2023-02-11T05:32:59;5.93;;;1.63;;
22332;SDS011;11334;36.986;-121.936;2023-02-11T05:35:25;7.70;;;2.20;;
22332;SDS011;11334;36.986;-121.936;2023-02-11T05:37:52;6.72;;;1.90;;
22332;SDS011;11334;36.986;-121.936;2023-02-11T05:40:18;6.25;;;1.75;;
22332;SDS011;11334;36.986;-121.936;2023-02-11T05:42:44;8.75;;;2.20;;
22332;SDS011;11334;36.986;-121.936;2023-02-11T05:45:10;7.88;;;1.77;;
22332;SDS011;11334;36.986;-121.936;2023-02-11T05:47:36;10.45;;;2.47;;
22332;SDS011;11334;36.986;-121.936;2023-02-11T05:50:03;7.60;;;1.83;;
22332;SDS011;11334;36.986;-121.936;2023-02-11T05:52:29;8.43;;;1.60;;
22332;SDS011;11334;36.986;-121.936;2023-02-11T05:54:55;6.68;;;1.67;;
22332;SDS011;11334;36.986;-121.936;2023-02-11T05:57:22;8.60;;;2.30;;
22332;SDS011;11334;36.986;-121.936;2023-02-11T05:59:48;8.32;;;1.98;;
22332;SDS011;11334;36.986;-121.936;2023-02-11T06:02:14;7.72;;;2.20;;
22332;SDS011;11334;36.986;-121.936;2023-02-11T06:04:40;7.50;;;2.13;;
22332;SDS011;11334;36.986;-121.936;2023-02-11T06:07:08;10.45;;;2.33;;
22332;SDS011;11334;36.986;-121.936;2023-02-11T06:09:35;9.95;;;2.25;;
22332;SDS011;11334;36.986;-121.936;2023-02-11T06:12:02;8.98;;;2.30;;
22332;SDS011;11334;36.986;-121.936;2023-02-11T06:14:28;5.35;;;1.80;;
22332;SDS011;11334;36.986;-121.936;2023-02-11T06:16:56;7.93;;;2.00;;
22332;SDS011;11334;36.986;-121.936;2023-02-11T06:19:22;4.68;;;2.00;;
22332;SDS011;11334;36.986;-121.936;2023-02-11T06:21:48;7.70;;;1.80;;
22332;SDS011;11334;36.986;-121.936;2023-02-11T06:24:15;8.32;;;2.38;;
22332;SDS011;11334;36.986;-121.936;2023-02-11T06:26:41;8.25;;;2.42;;
22332;SDS011;11334;36.986;-121.936;2023-02-11T06:29:07;5.47;;;2.00;;
22332;SDS011;11334;36.986;-121.936;2023-02-11T06:31:35;8.27;;;2.10;;
22332;SDS011;11334;36.986;-121.936;2023-02-11T06:34:03;10.27;;;1.92;;
22332;SDS011;11334;36.986;-121.936;2023-02-11T06:36:29;7.00;;;2.30;;
22332;SDS011;11334;36.986;-121.936;2023-02-11T06:38:55;7.82;;;2.17;;
22332;SDS011;11334;36.986;-121.936;2023-02-11T06:41:21;6.82;;;2.78;;
22332;SDS011;11334;36.986;-121.936;2023-02-11T06:43:49;9.10;;;2.25;;
22332;SDS011;11334;36.986;-121.936;2023-02-11T06:46:16;9.65;;;3.03;;
22332;SDS011;11334;36.986;-121.936;2023-02-11T06:48:43;11.65;;;2.90;;
22332;SDS011;11334;36.986;-121.936;2023-02-11T06:51:10;8.02;;;2.53;;
22332;SDS011;11334;36.986;-121.936;2023-02-11T06:53:38;11.13;;;2.00;;
22332;SDS011;11334;36.986;-121.936;2023-02-11T06:56:11;4.82;;;1.92;;
22332;SDS011;11334;36.986;-121.936;2023-02-11T06:58:39;9.15;;;2.28;;
22332;SDS011;11334;36.986;-121.936;2023-02-11T07:01:07;7.00;;;2.20;;
22332;SDS011;11334;36.986;-121.936;2023-02-11T07:03:35;6.18;;;1.70;;
22332;SDS011;11334;36.986;-121.936;2023-02-11T07:06:03;5.78;;;1.65;;
22332;SDS011;11334;36.986;-121.936;2023-02-11T07:08:34;6.38;;;1.52;;
22332;SDS011;11334;36.986;-121.936;2023-02-11T07:11:07;5.90;;;1.80;;
22332;SDS011;11334;36.986;-121.936;2023-02-11T07:13:38;6.47;;;1.52;;
22332;SDS011;11334;36.986;-121.936;2023-02-11T07:16:05;11.65;;;2.53;;
22332;SDS011;11334;36.986;-121.936;2023-02-11T07:18:33;13.68;;;2.30;;
22332;SDS011;11334;36.986;-121.936;2023-02-11T07:21:02;6.50;;;1.83;;
22332;SDS011;11334;36.986;-121.936;2023-02-11T07:23:30;8.65;;;2.25;;
22332;SDS011;11334;36.986;-121.936;2023-02-11T07:25:57;6.43;;;1.75;;
22332;SDS011;11334;36.986;-121.936;2023-02-11T07:28:27;9.38;;;3.10;;
22332;SDS011;11334;36.986;-121.936;2023-02-11T07:30:53;4.78;;;2.05;;
22332;SDS011;11334;36.986;-121.936;2023-02-11T07:33:19;8.07;;;2.78;;
22332;SDS011;11334;36.986;-121.936;2023-02-11T07:35:45;4.13;;;2.03;;
22332;SDS011;11334;36.986;-121.936;2023-02-11T07:38:12;6.35;;;2.67;;
22332;SDS011;11334;36.986;-121.936;2023-02-11T07:40:38;5.47;;;2.33;;
22332;SDS011;11334;36.986;-121.936;2023-02-11T07:43:05;5.55;;;2.30;;
22332;SDS011;11334;36.986;-121.936;2023-02-11T07:45:31;7.90;;;1.83;;
22332;SDS011;11334;36.986;-121.936;2023-02-11T07:47:57;6.45;;;2.20;;
22332;SDS011;11334;36.986;-121.936;2023-02-11T07:50:23;8.30;;;2.30;;
22332;SDS011;11334;36.986;-121.936;2023-02-11T07:52:49;8.63;;;2.30;;
22332;SDS011;11334;36.986;-121.936;2023-02-11T07:55:16;8.95;;;2.00;;
22332;SDS011;11334;36.986;-121.936;2023-02-11T07:57:42;6.47;;;2.67;;
22332;SDS011;11334;36.986;-121.936;2023-02-11T08:00:08;4.20;;;1.88;;
22332;SDS011;11334;36.986;-121.936;2023-02-11T08:02:35;9.05;;;2.67;;
22332;SDS011;11334;36.986;-121.936;2023-02-11T08:05:01;9.05;;;2.30;;
22332;SDS011;11334;36.986;-121.936;2023-02-11T08:07:28;5.38;;;1.92;;
22332;SDS011;11334;36.986;-121.936;2023-02-11T08:09:54;8.63;;;2.40;;
22332;SDS011;11334;36.986;-121.936;2023-02-11T08:12:20;5.18;;;1.90;;
22332;SDS011;11334;36.986;-121.936;2023-02-11T08:14:46;6.45;;;2.42;;
22332;SDS011;11334;36.986;-121.936;2023-02-11T08:17:12;8.98;;;3.45;;
22332;SDS011;11334;36.986;-121.936;2023-02-11T08:19:39;14.88;;;4.28;;
22332;SDS011;11334;36.986;-121.936;2023-02-11T08:22:05;7.47;;;3.95;;
22332;SDS011;11334;36.986;-121.936;2023-02-11T08:24:31;5.38;;;2.95;;
22332;SDS011;11334;36.986;-121.936;2023-02-11T08:26:57;8.27;;;2.70;;
22332;SDS011;11334;36.986;-121.936;2023-02-11T08:29:24;5.35;;;2.25;;
22332;SDS011;11334;36.986;-121.936;2023-02-11T08:31:50;2.83;;;1.90;;
22332;SDS011;11334;36.986;-121.936;2023-02-11T08:34:16;3.20;;;1.70;;
22332;SDS011;11334;36.986;-121.936;2023-02-11T08:36:43;5.45;;;1.80;;
22332;SDS011;11334;36.986;-121.936;2023-02-11T08:39:15;3.95;;;1.67;;
22332;SDS011;11334;36.986;-121.936;2023-02-11T08:41:45;8.43;;;1.67;;
22332;SDS011;11334;36.986;-121.936;2023-02-11T08:44:13;8.48;;;2.80;;
22332;SDS011;11334;36.986;-121.936;2023-02-11T08:46:39;12.05;;;2.75;;
22332;SDS011;11334;36.986;-121.936;2023-02-11T08:49:05;8.25;;;2.30;;
22332;SDS011;11334;36.986;-121.936;2023-02-11T08:51:31;9.13;;;2.35;;
22332;SDS011;11334;36.986;-121.936;2023-02-11T08:53:58;7.20;;;2.30;;
22332;SDS011;11334;36.986;-121.936;2023-02-11T08:56:25;6.05;;;1.80;;
22332;SDS011;11334;36.986;-121.936;2023-02-11T08:58:52;6.18;;;1.63;;
22332;SDS011;11334;36.986;-121.936;2023-02-11T09:01:23;5.88;;;1.73;;
22332;SDS011;11334;36.986;-121.936;2023-02-11T09:03:51;8.43;;;2.15;;
22332;SDS011;11334;36.986;-121.936;2023-02-11T09:06:18;7.15;;;2.20;;
22332;SDS011;11334;36.986;-121.936;2023-02-11T09:08:47;15.65;;;3.90;;
22332;SDS011;11334;36.986;-121.936;2023-02-11T09:11:17;20.90;;;4.10;;
22332;SDS011;11334;36.986;-121.936;2023-02-11T09:13:46;11.25;;;3.67;;
22332;SDS011;11334;36.986;-121.936;2023-02-11T09:16:19;10.52;;;3.72;;
22332;SDS011;11334;36.986;-121.936;2023-02-11T09:18:50;8.98;;;2.97;;
22332;SDS011;11334;36.986;-121.936;2023-02-11T09:21:17;5.43;;;2.25;;
22332;SDS011;11334;36.986;-121.936;2023-02-11T09:23:44;7.07;;;1.70;;
22332;SDS011;11334;36.986;-121.936;2023-02-11T09:26:19;9.27;;;2.10;;
22332;SDS011;11334;36.986;-121.936;2023-02-11T09:28:48;5.50;;;2.30;;
22332;SDS011;11334;36.986;-121.936;2023-02-11T09:31:16;9.02;;;1.98;;
22332;SDS011;11334;36.986;-121.936;2023-02-11T09:33:45;3.67;;;1.45;;
22332;SDS011;11334;36.986;-121.936;2023-02-11T09:36:13;8.43;;;2.40;;
22332;SDS011;11334;36.986;-121.936;2023-02-11T09:38:51;8.32;;;1.65;;
22332;SDS011;11334;36.986;-121.936;2023-02-11T09:44:19;4.07;;;1.50;;
22332;SDS011;11334;36.986;-121.936;2023-02-11T09:46:54;7.35;;;1.70;;
22332;SDS011;11334;36.986;-121.936;2023-02-11T09:54:57;10.98;;;1.77;;
22332;SDS011;11334;36.986;-121.936;2023-02-11T09:57:28;7.10;;;2.15;;
22332;SDS011;11334;36.986;-121.936;2023-02-11T09:59:58;6.55;;;2.05;;
22332;SDS011;11334;36.986;-121.936;2023-02-11T10:02:32;7.75;;;2.70;;
22332;SDS011;11334;36.986;-121.936;2023-02-11T10:10:52;4.93;;;1.80;;
22332;SDS011;11334;36.986;-121.936;2023-02-11T10:13:46;3.47;;;1.20;;
22332;SDS011;11334;36.986;-121.936;2023-02-11T10:16:18;7.03;;;1.38;;
22332;SDS011;11334;36.986;-121.936;2023-02-11T10:21:24;4.13;;;1.13;;
22332;SDS011;11334;36.986;-121.936;2023-02-11T10:24:15;11.35;;;1.77;;
22332;SDS011;11334;36.986;-121.936;2023-02-11T10:26:42;4.20;;;1.42;;
22332;SDS011;11334;36.986;-121.936;2023-02-11T10:32:04;7.32;;;1.55;;
22332;SDS011;11334;36.986;-121.936;2023-02-11T10:34:40;4.13;;;1.42;;
22332;SDS011;11334;36.986;-121.936;2023-02-11T10:37:07;6.05;;;1.33;;
22332;SDS011;11334;36.986;-121.936;2023-02-11T10:39:37;6.68;;;1.40;;
22332;SDS011;11334;36.986;-121.936;2023-02-11T10:42:06;7.70;;;1.90;;
22332;SDS011;11334;36.986;-121.936;2023-02-11T10:44:37;6.60;;;1.42;;
22332;SDS011;11334;36.986;-121.936;2023-02-11T10:47:08;5.15;;;1.25;;
22332;SDS011;11334;36.986;-121.936;2023-02-11T10:49:41;3.90;;;1.42;;
22332;SDS011;11334;36.986;-121.936;2023-02-11T10:54:55;3.35;;;1.00;;
22332;SDS011;11334;36.986;-121.936;2023-02-11T10:57:34;3.08;;;1.02;;
22332;SDS011;11334;36.986;-121.936;2023-02-11T11:00:07;6.97;;;1.42;;
22332;SDS011;11334;36.986;-121.936;2023-02-11T11:02:43;8.52;;;1.75;;
22332;SDS011;11334;36.986;-121.936;2023-02-11T11:05:15;8.15;;;1.30;;
22332;SDS011;11334;36.986;-121.936;2023-02-11T11:07:53;4.57;;;1.50;;
22332;SDS011;11334;36.986;-121.936;2023-02-11T11:10:41;6.00;;;1.70;;
22332;SDS011;11334;36.986;-121.936;2023-02-11T11:13:26;7.90;;;1.67;;
22332;SDS011;11334;36.986;-121.936;2023-02-11T11:18:41;5.70;;;1.60;;
22332;SDS011;11334;36.986;-121.936;2023-02-11T11:21:14;6.25;;;1.73;;
22332;SDS011;11334;36.986;-121.936;2023-02-11T11:23:56;7.18;;;1.50;;
22332;SDS011;11334;36.986;-121.936;2023-02-11T11:26:25;4.07;;;1.40;;
22332;SDS011;11334;36.986;-121.936;2023-02-11T11:29:07;4.10;;;1.65;;
22332;SDS011;11334;36.986;-121.936;2023-02-11T11:31:45;4.88;;;1.88;;
22332;SDS011;11334;36.986;-121.936;2023-02-11T11:34:28;9.35;;;1.55;;
22332;SDS011;11334;36.986;-121.936;2023-02-11T11:36:57;5.85;;;2.03;;
22332;SDS011;11334;36.986;-121.936;2023-02-11T11:39:26;5.18;;;1.40;;
22332;SDS011;11334;36.986;-121.936;2023-02-11T11:41:57;5.53;;;1.60;;
22332;SDS011;11334;36.986;-121.936;2023-02-11T11:44:29;3.90;;;1.50;;
22332;SDS011;11334;36.986;-121.936;2023-02-11T11:50:26;4.25;;;1.33;;
22332;SDS011;11334;36.986;-121.936;2023-02-11T11:52:49;4.85;;;1.42;;
22332;SDS011;11334;36.986;-121.936;2023-02-11T11:58:20;5.88;;;1.50;;
22332;SDS011;11334;36.986;-121.936;2023-02-11T12:17:51;6.25;;;1.80;;
22332;SDS011;11334;36.986;-121.936;2023-02-11T12:20:52;4.80;;;1.38;;
22332;SDS011;11334;36.986;-121.936;2023-02-11T12:23:45;6.97;;;1.50;;
22332;SDS011;11334;36.986;-121.936;2023-02-11T12:26:26;8.20;;;1.35;;
22332;SDS011;11334;36.986;-121.936;2023-02-11T12:37:34;4.90;;;1.67;;
22332;SDS011;11334;36.986;-121.936;2023-02-11T12:40:52;6.40;;;1.70;;
22332;SDS011;11334;36.986;-121.936;2023-02-11T12:43:37;6.85;;;1.60;;
22332;SDS011;11334;36.986;-121.936;2023-02-11T12:59:12;7.43;;;1.77;;
22332;SDS011;11334;36.986;-121.936;2023-02-11T13:02:01;6.32;;;1.35;;
22332;SDS011;11334;36.986;-121.936;2023-02-11T13:04:37;3.20;;;1.23;;
22332;SDS011;11334;36.986;-121.936;2023-02-11T13:07:13;8.95;;;1.95;;
22332;SDS011;11334;36.986;-121.936;2023-02-11T13:10:05;3.85;;;1.65;;
22332;SDS011;11334;36.986;-121.936;2023-02-11T13:12:40;6.90;;;1.27;;
22332;SDS011;11334;36.986;-121.936;2023-02-11T13:15:28;4.28;;;1.45;;
22332;SDS011;11334;36.986;-121.936;2023-02-11T13:23:52;3.13;;;0.98;;
22332;SDS011;11334;36.986;-121.936;2023-02-11T13:31:25;4.47;;;1.30;;
22332;SDS011;11334;36.986;-121.936;2023-02-11T13:33:54;2.63;;;0.90;;
22332;SDS011;11334;36.986;-121.936;2023-02-11T13:36:21;3.97;;;1.00;;
22332;SDS011;11334;36.986;-121.936;2023-02-11T13:39:16;5.05;;;1.38;;
22332;SDS011;11334;36.986;-121.936;2023-02-11T13:41:45;3.85;;;1.30;;
22332;SDS011;11334;36.986;-121.936;2023-02-11T13:46:53;6.18;;;2.30;;
22332;SDS011;11334;36.986;-121.936;2023-02-11T13:49:26;11.68;;;1.73;;
22332;SDS011;11334;36.986;-121.936;2023-02-11T13:51:57;2.80;;;1.30;;
22332;SDS011;11334;36.986;-121.936;2023-02-11T13:54:35;5.82;;;1.45;;
22332;SDS011;11334;36.986;-121.936;2023-02-11T13:59:55;3.97;;;1.40;;
22332;SDS011;11334;36.986;-121.936;2023-02-11T14:02:24;3.55;;;1.13;;
22332;SDS011;11334;36.986;-121.936;2023-02-11T14:05:18;3.50;;;1.30;;
22332;SDS011;11334;36.986;-121.936;2023-02-11T14:10:51;4.13;;;1.15;;
22332;SDS011;11334;36.986;-121.936;2023-02-11T14:13:25;6.43;;;1.35;;
22332;SDS011;11334;36.986;-121.936;2023-02-11T14:16:03;1.90;;;1.20;;
22332;SDS011;11334;36.986;-121.936;2023-02-11T14:18:36;2.28;;;0.95;;
22332;SDS011;11334;36.986;-121.936;2023-02-11T14:21:23;2.50;;;1.25;;
22332;SDS011;11334;36.986;-121.936;2023-02-11T14:29:34;3.10;;;1.30;;
22332;SDS011;11334;36.986;-121.936;2023-02-11T14:40:28;2.45;;;1.23;;
22332;SDS011;11334;36.986;-121.936;2023-02-11T14:43:11;5.20;;;1.17;;
22332;SDS011;11334;36.986;-121.936;2023-02-11T14:45:43;5.35;;;1.30;;
22332;SDS011;11334;36.986;-121.936;2023-02-11T14:48:15;4.68;;;1.52;;
22332;SDS011;11334;36.986;-121.936;2023-02-11T14:53:37;4.38;;;1.17;;
22332;SDS011;11334;36.986;-121.936;2023-02-11T14:56:20;3.95;;;0.88;;
22332;SDS011;11334;36.986;-121.936;2023-02-11T14:58:50;2.20;;;1.00;;
22332;SDS011;11334;36.986;-121.936;2023-02-11T15:04:30;3.75;;;1.40;;
22332;SDS011;11334;36.986;-121.936;2023-02-11T15:07:01;4.32;;;1.50;;
22332;SDS011;11334;36.986;-121.936;2023-02-11T15:12:22;5.03;;;1.20;;
22332;SDS011;11334;36.986;-121.936;2023-02-11T15:14:54;4.07;;;1.25;;
22332;SDS011;11334;36.986;-121.936;2023-02-11T15:17:28;3.30;;;0.93;;
22332;SDS011;11334;36.986;-121.936;2023-02-11T15:19:57;5.30;;;1.10;;
22332;SDS011;11334;36.986;-121.936;2023-02-11T15:22:27;6.07;;;1.83;;
22332;SDS011;11334;36.986;-121.936;2023-02-11T15:24:58;3.95;;;1.52;;
22332;SDS011;11334;36.986;-121.936;2023-02-11T15:27:25;6.75;;;1.67;;
22332;SDS011;11334;36.986;-121.936;2023-02-11T15:29:51;3.63;;;1.38;;
22332;SDS011;11334;36.986;-121.936;2023-02-11T15:32:18;5.47;;;1.60;;
22332;SDS011;11334;36.986;-121.936;2023-02-11T15:34:50;6.45;;;1.83;;
22332;SDS011;11334;36.986;-121.936;2023-02-11T15:37:21;4.00;;;1.55;;
22332;SDS011;11334;36.986;-121.936;2023-02-11T15:39:54;8.07;;;1.85;;
22332;SDS011;11334;36.986;-121.936;2023-02-11T15:42:32;6.18;;;1.30;;
22332;SDS011;11334;36.986;-121.936;2023-02-11T15:47:51;7.20;;;1.80;;
22332;SDS011;11334;36.986;-121.936;2023-02-11T15:50:21;5.35;;;1.73;;
22332;SDS011;11334;36.986;-121.936;2023-02-11T15:52:50;8.85;;;1.95;;
22332;SDS011;11334;36.986;-121.936;2023-02-11T15:55:18;3.97;;;1.83;;
22332;SDS011;11334;36.986;-121.936;2023-02-11T15:57:47;5.70;;;1.65;;
22332;SDS011;11334;36.986;-121.936;2023-02-11T16:00:33;4.78;;;1.40;;
22332;SDS011;11334;36.986;-121.936;2023-02-11T16:03:02;3.85;;;1.23;;
22332;SDS011;11334;36.986;-121.936;2023-02-11T16:05:30;4.82;;;1.60;;
22332;SDS011;11334;36.986;-121.936;2023-02-11T16:08:12;10.40;;;1.65;;
22332;SDS011;11334;36.986;-121.936;2023-02-11T16:10:54;3.75;;;1.40;;
22332;SDS011;11334;36.986;-121.936;2023-02-11T16:13:28;5.05;;;1.35;;
22332;SDS011;11334;36.986;-121.936;2023-02-11T16:15:59;7.10;;;1.58;;
22332;SDS011;11334;36.986;-121.936;2023-02-11T16:18:36;5.93;;;1.58;;
22332;SDS011;11334;36.986;-121.936;2023-02-11T16:21:12;3.78;;;1.60;;
22332;SDS011;11334;36.986;-121.936;2023-02-11T16:23:53;5.85;;;1.38;;
22332;SDS011;11334;36.986;-121.936;2023-02-11T16:26:23;4.40;;;1.27;;
22332;SDS011;11334;36.986;-121.936;2023-02-11T16:28:51;3.97;;;1.10;;
22332;SDS011;11334;36.986;-121.936;2023-02-11T16:31:18;6.38;;;1.50;;
22332;SDS011;11334;36.986;-121.936;2023-02-11T16:33:44;3.83;;;1.30;;
22332;SDS011;11334;36.986;-121.936;2023-02-11T16:36:11;2.35;;;1.45;;
22332;SDS011;11334;36.986;-121.936;2023-02-11T16:38:41;2.75;;;1.10;;
22332;SDS011;11334;36.986;-121.936;2023-02-11T16:41:07;4.60;;;1.13;;
22332;SDS011;11334;36.986;-121.936;2023-02-11T16:43:37;3.65;;;1.40;;
22332;SDS011;11334;36.986;-121.936;2023-02-11T16:46:04;2.60;;;1.30;;
22332;SDS011;11334;36.986;-121.936;2023-02-11T16:48:30;5.32;;;1.42;;
22332;SDS011;11334;36.986;-121.936;2023-02-11T16:50:57;5.15;;;1.33;;
22332;SDS011;11334;36.986;-121.936;2023-02-11T16:53:24;4.30;;;1.20;;
22332;SDS011;11334;36.986;-121.936;2023-02-11T16:55:50;2.83;;;1.40;;
22332;SDS011;11334;36.986;-121.936;2023-02-11T16:58:17;2.08;;;1.20;;
22332;SDS011;11334;36.986;-121.936;2023-02-11T17:00:44;1.55;;;1.08;;